createdAt,value
2023-03-26T00:03:41.575Z,99908.00
2023-03-26T00:08:46.096Z,99889.13
2023-03-26T00:13:48.862Z,99894.88
2023-03-26T00:18:52.165Z,99901.25
2023-03-26T00:23:56.521Z,99885.31
2023-03-26T00:29:01.343Z,99900.00
2023-03-26T00:34:05.862Z,99894.56
2023-03-26T00:39:08.111Z,99897.22
2023-03-26T00:44:11.193Z,99904.22
2023-03-26T00:49:15.123Z,99886.31
2023-03-26T00:54:17.765Z,99883.31
2023-03-26T00:59:23.494Z,99898.50
2023-03-26T01:04:31.910Z,99892.19
2023-03-26T01:09:37.470Z,99894.22
2023-03-26T01:14:40.112Z,99874.59
2023-03-26T01:19:48.510Z,99877.47
2023-03-26T01:24:54.315Z,99886.47
2023-03-26T01:30:18.884Z,99852.00
2023-03-26T01:35:35.332Z,99884.34
2023-03-26T01:41:16.386Z,99869.50
2023-03-26T01:46:21.328Z,99868.63
2023-03-26T01:51:36.422Z,99886.75
2023-03-26T01:57:10.144Z,99862.53
2023-03-26T02:02:17.522Z,99876.50
2023-03-26T02:07:38.434Z,99876.91
2023-03-26T02:12:43.286Z,99865.13
2023-03-26T02:17:46.411Z,99866.22
2023-03-26T02:22:49.002Z,99884.06
2023-03-26T02:27:53.207Z,99889.00
2023-03-26T02:32:59.550Z,99870.22
2023-03-26T02:38:02.295Z,99892.31
2023-03-26T02:43:04.464Z,99876.50
2023-03-26T02:48:06.740Z,99881.34
2023-03-26T02:53:09.273Z,99880.38
2023-03-26T02:58:12.576Z,99886.44
2023-03-26T03:03:17.527Z,99884.66
2023-03-26T03:08:21.482Z,99886.78
2023-03-26T03:13:24.303Z,99875.94
2023-03-26T03:18:26.543Z,99884.56
2023-03-26T03:23:29.094Z,99882.91
2023-03-26T03:28:31.269Z,99909.44
2023-03-26T03:33:33.605Z,99916.91
2023-03-26T03:38:35.818Z,99923.00
2023-03-26T03:43:37.961Z,99908.06
2023-03-26T03:48:42.298Z,99908.16
2023-03-26T03:53:46.604Z,99937.38
2023-03-26T03:58:48.760Z,99941.84
2023-03-26T04:03:51.084Z,99945.31
2023-03-26T04:08:53.495Z,99968.38
2023-03-26T04:13:55.669Z,99970.03
2023-03-26T04:18:58.613Z,99961.41
2023-03-26T04:24:02.943Z,99963.72
2023-03-26T04:29:12.347Z,99991.88
2023-03-26T04:34:24.499Z,99983.63
2023-03-26T04:39:29.541Z,100012.38
2023-03-26T04:44:32.229Z,99996.16
2023-03-26T04:49:34.474Z,100017.00
2023-03-26T04:54:36.823Z,100025.16
2023-03-26T04:59:41.804Z,100021.38
2023-03-26T05:04:46.189Z,100048.38
2023-03-26T05:09:48.847Z,100051.09
2023-03-26T05:14:51.032Z,100067.69
2023-03-26T05:19:53.642Z,100076.97
2023-03-26T05:24:56.671Z,100066.31
2023-03-26T05:30:05.561Z,100097.69
2023-03-26T05:35:08.575Z,100096.63
2023-03-26T05:40:12.629Z,100090.72
2023-03-26T05:45:16.513Z,100074.25
2023-03-26T05:50:18.935Z,100084.03
2023-03-26T05:55:22.318Z,100063.31
2023-03-26T06:00:25.495Z,100082.06
2023-03-26T06:05:32.942Z,100092.09
2023-03-26T06:10:39.093Z,100098.84
2023-03-26T06:15:41.711Z,100102.66
2023-03-26T06:20:44.132Z,100102.31
2023-03-26T06:25:46.993Z,100088.91
2023-03-26T06:30:49.591Z,100103.66
2023-03-26T06:35:51.926Z,100119.47
2023-03-26T06:40:54.448Z,100129.16
2023-03-26T06:45:57.003Z,100132.66
2023-03-26T06:50:59.609Z,100123.63
2023-03-26T06:56:03.234Z,100130.56
2023-03-26T07:01:05.938Z,100135.03
2023-03-26T07:06:08.832Z,100140.56
2023-03-26T07:11:11.521Z,100134.88
2023-03-26T07:16:15.082Z,100127.59
2023-03-26T07:21:18.960Z,100121.16
2023-03-26T07:26:52.169Z,100142.03
2023-03-26T07:32:11.147Z,100143.19
2023-03-26T07:37:44.360Z,100140.56
2023-03-26T07:42:52.441Z,100144.47
2023-03-26T07:47:57.343Z,100146.84
2023-03-26T07:52:59.907Z,100124.88
2023-03-26T07:58:38.775Z,100153.28
2023-03-26T08:04:23.873Z,100158.50
2023-03-26T08:09:27.312Z,100152.34
2023-03-26T08:14:38.128Z,100145.84
2023-03-26T08:19:55.526Z,100136.53
2023-03-26T08:25:27.970Z,100121.47
2023-03-26T08:30:31.322Z,100148.41
2023-03-26T08:35:35.560Z,100123.69
2023-03-26T08:41:11.513Z,100139.81
2023-03-26T08:46:38.655Z,100136.81
2023-03-26T08:52:06.140Z,100139.63
2023-03-26T08:57:29.177Z,100133.66
2023-03-26T09:02:40.364Z,100130.50
2023-03-26T09:07:58.655Z,100127.06
2023-03-26T09:13:40.423Z,100141.03
2023-03-26T09:19:07.395Z,100117.00
2023-03-26T09:24:33.840Z,100128.94
2023-03-26T09:30:21.839Z,100123.97
2023-03-26T09:35:29.953Z,100124.38
2023-03-26T09:40:44.312Z,100128.59
2023-03-26T09:46:05.388Z,100127.06
2023-03-26T09:51:20.783Z,100114.84
2023-03-26T09:56:22.897Z,100117.69
2023-03-26T10:01:38.199Z,100105.34
2023-03-26T10:07:37.566Z,100116.88
2023-03-26T10:12:44.746Z,100111.13
2023-03-26T10:18:27.168Z,100099.44
2023-03-26T10:24:16.730Z,100084.97
2023-03-26T10:29:40.099Z,100080.03
2023-03-26T10:35:10.801Z,100068.50
2023-03-26T10:40:25.759Z,100069.88
2023-03-26T10:45:47.481Z,100070.38
2023-03-26T10:51:20.733Z,100071.44
2023-03-26T10:56:23.729Z,100069.69
2023-03-26T11:01:34.877Z,100059.44
2023-03-26T11:06:53.086Z,100044.78
2023-03-26T11:12:26.777Z,100030.47
2023-03-26T11:17:40.366Z,100025.28
2023-03-26T11:23:20.226Z,100033.06
2023-03-26T11:29:03.650Z,100008.72
2023-03-26T11:34:19.307Z,100002.34
2023-03-26T11:39:26.471Z,99999.94
2023-03-26T11:44:34.716Z,99991.00
2023-03-26T11:49:38.517Z,99987.72
2023-03-26T11:54:40.726Z,99972.16
2023-03-26T11:59:57.563Z,99974.75
2023-03-26T12:05:21.756Z,99969.22
2023-03-26T12:10:35.514Z,99944.88
2023-03-26T12:15:44.391Z,99934.66
2023-03-26T12:20:46.627Z,99926.84
2023-03-26T12:26:12.456Z,99926.78
2023-03-26T12:31:18.511Z,99904.03
2023-03-26T12:36:29.548Z,99913.53
2023-03-26T12:43:01.492Z,99916.28
2023-03-26T12:47:59.508Z,99897.56
2023-03-26T12:53:03.247Z,99904.09
2023-03-26T12:58:29.546Z,99899.88
2023-03-26T13:04:18.677Z,99880.84
2023-03-26T13:09:43.972Z,99878.59
2023-03-26T13:15:14.860Z,99858.59
2023-03-26T13:20:33.533Z,99853.75
2023-03-26T13:26:14.636Z,99858.81
2023-03-26T13:31:28.302Z,99824.91
2023-03-26T13:36:30.589Z,99847.91
2023-03-26T13:41:56.569Z,99840.69
2023-03-26T13:47:11.218Z,99831.28
2023-03-26T13:52:30.977Z,99829.88
2023-03-26T13:57:39.770Z,99826.09
2023-03-26T14:02:44.978Z,99829.63
2023-03-26T14:08:00.607Z,99817.19
2023-03-26T14:13:02.736Z,99812.28
2023-03-26T14:18:29.731Z,99807.66
2023-03-26T14:23:54.493Z,99781.78
2023-03-26T14:29:06.023Z,99801.41
2023-03-26T14:34:13.728Z,99801.50
2023-03-26T14:39:23.902Z,99790.34
2023-03-26T14:45:01.880Z,99781.09
2023-03-26T14:50:26.971Z,99785.41
2023-03-26T14:56:00.097Z,99785.50
2023-03-26T15:01:21.234Z,99774.31
2023-03-26T15:07:01.815Z,99789.22
2023-03-26T15:12:18.719Z,99791.34
2023-03-26T15:17:32.791Z,99791.00
2023-03-26T15:22:56.502Z,99790.78
2023-03-26T15:28:33.945Z,99782.94
2023-03-26T15:33:55.360Z,99781.47
2023-03-26T15:39:30.407Z,99764.69
2023-03-26T15:44:53.755Z,99774.78
2023-03-26T15:50:08.542Z,99767.75
2023-03-26T15:55:37.362Z,99752.63
2023-03-26T16:00:57.566Z,99770.66
2023-03-26T16:06:16.209Z,99780.38
2023-03-26T16:11:57.002Z,99771.88
2023-03-26T16:17:00.303Z,99777.84
2023-03-26T16:22:15.671Z,99777.38
2023-03-26T16:27:30.648Z,99794.56
2023-03-26T16:32:41.089Z,99788.16
2023-03-26T16:37:50.390Z,99798.13
2023-03-26T16:43:17.399Z,99796.72
2023-03-26T16:48:42.356Z,99813.59
2023-03-26T16:53:57.900Z,99787.75
2023-03-26T16:59:09.577Z,99808.44
2023-03-26T17:04:21.015Z,99817.34
2023-03-26T17:09:40.432Z,99806.25
2023-03-26T17:15:06.239Z,99820.25
2023-03-26T17:20:20.295Z,99828.41
2023-03-26T17:25:26.224Z,99827.88
2023-03-26T17:30:56.496Z,99851.03
2023-03-26T17:36:23.016Z,99862.44
2023-03-26T17:41:52.001Z,99865.69
2023-03-26T17:46:57.374Z,99864.56
2023-03-26T17:52:25.738Z,99872.69
2023-03-26T17:57:56.862Z,99878.53
2023-03-26T18:03:23.582Z,99885.72
2023-03-26T18:08:41.180Z,99931.78
2023-03-26T18:14:18.145Z,99940.38
2023-03-26T18:19:23.359Z,99941.66
2023-03-26T18:24:40.754Z,99940.53
2023-03-26T18:29:56.950Z,99928.75
2023-03-26T18:35:22.304Z,99936.69
2023-03-26T18:40:28.157Z,99946.19
2023-03-26T18:45:38.059Z,99925.19
2023-03-26T18:50:43.121Z,99946.31
2023-03-26T18:55:45.713Z,99939.16
2023-03-26T19:00:50.218Z,99942.28
2023-03-26T19:05:55.024Z,99952.16
2023-03-26T19:10:57.880Z,99952.09
2023-03-26T19:16:04.480Z,99948.97
2023-03-26T19:21:08.294Z,99922.41
2023-03-26T19:26:11.883Z,99943.88
2023-03-26T19:31:16.717Z,99954.72
2023-03-26T19:36:24.812Z,99945.03
2023-03-26T19:41:37.010Z,99946.38
2023-03-26T19:46:52.855Z,99937.75
2023-03-26T19:52:26.694Z,99939.97
2023-03-26T19:57:35.126Z,99939.63
2023-03-26T20:02:37.529Z,99936.72
2023-03-26T20:07:39.798Z,99936.09
2023-03-26T20:12:43.317Z,99927.34
2023-03-26T20:17:47.134Z,99914.56
2023-03-26T20:22:49.895Z,99918.44
2023-03-26T20:27:53.539Z,99905.75
2023-03-26T20:33:12.102Z,99877.53
2023-03-26T20:38:15.997Z,99875.81
2023-03-26T20:43:22.203Z,99886.47
2023-03-26T20:48:26.886Z,99893.28
2023-03-26T20:53:30.768Z,99892.31
2023-03-26T20:58:33.742Z,99877.63
2023-03-26T21:03:36.251Z,99890.19
2023-03-26T21:08:38.797Z,99863.06
2023-03-26T21:13:47.902Z,99865.59
2023-03-26T21:18:50.312Z,99879.59
2023-03-26T21:24:10.262Z,99879.03
2023-03-26T21:29:13.068Z,99870.72
2023-03-26T21:34:15.914Z,99861.22
2023-03-26T21:39:18.633Z,99838.47
2023-03-26T21:44:21.756Z,99839.69
2023-03-26T21:49:24.205Z,99845.31
2023-03-26T21:54:29.308Z,99859.16
2023-03-26T21:59:37.241Z,99854.47
2023-03-26T22:04:39.301Z,99856.69
2023-03-26T22:09:42.404Z,99857.25
2023-03-26T22:14:45.239Z,99847.84
2023-03-26T22:19:47.513Z,99819.91
2023-03-26T22:24:49.643Z,99831.63
2023-03-26T22:29:51.797Z,99827.25
2023-03-26T22:34:53.880Z,99828.47
2023-03-26T22:39:56.754Z,99813.88
2023-03-26T22:44:58.898Z,99812.69
2023-03-26T22:50:02.326Z,99833.22
2023-03-26T22:55:05.611Z,99849.72
2023-03-26T23:00:16.437Z,99831.38
2023-03-26T23:05:18.871Z,99831.13
2023-03-26T23:10:22.110Z,99821.78
2023-03-26T23:15:26.300Z,99816.66
2023-03-26T23:20:29.764Z,99813.56
2023-03-26T23:25:32.828Z,99810.28
2023-03-26T23:30:35.992Z,99801.75
2023-03-26T23:35:38.248Z,99810.78
2023-03-26T23:40:43.195Z,99826.16
2023-03-26T23:45:47.450Z,99828.69
2023-03-26T23:50:50.846Z,99835.03
2023-03-26T23:56:00.040Z,99808.94
